createdAt,value
2023-04-25T00:01:00.043Z,100.00
2023-04-25T00:01:54.058Z,100.00
2023-04-25T00:02:48.175Z,100.00
2023-04-25T00:03:29.337Z,100.00
2023-04-25T00:04:12.753Z,100.00
2023-04-25T00:04:54.290Z,100.00
2023-04-25T00:05:35.183Z,100.00
2023-04-25T00:06:15.995Z,100.00
2023-04-25T00:06:56.752Z,100.00
2023-04-25T00:07:39.046Z,100.00
2023-04-25T00:08:19.155Z,100.00
2023-04-25T00:09:01.015Z,100.00
2023-04-25T00:09:41.455Z,100.00
2023-04-25T00:10:21.002Z,100.00
2023-04-25T00:11:01.090Z,100.00
2023-04-25T00:11:42.016Z,100.00
2023-04-25T00:12:23.783Z,100.00
2023-04-25T00:13:05.071Z,100.00
2023-04-25T00:13:45.182Z,100.00
2023-04-25T00:14:25.073Z,100.00
2023-04-25T00:15:05.085Z,100.00
2023-04-25T00:15:46.060Z,100.00
2023-04-25T00:16:26.120Z,100.00
2023-04-25T00:17:06.995Z,100.00
2023-04-25T00:17:47.150Z,100.00
2023-04-25T00:18:28.020Z,100.00
2023-04-25T00:19:09.514Z,100.00
2023-04-25T00:19:52.057Z,100.00
2023-04-25T00:20:32.141Z,100.00
2023-04-25T00:21:14.000Z,100.00
2023-04-25T00:21:54.392Z,100.00
2023-04-25T00:22:34.044Z,100.00
2023-04-25T00:23:18.500Z,100.00
2023-04-25T00:24:00.051Z,100.00
2023-04-25T00:24:40.201Z,100.00
2023-04-25T00:25:20.011Z,100.00
2023-04-25T00:26:00.244Z,100.00
2023-04-25T00:26:42.998Z,100.00
2023-04-25T00:27:23.145Z,100.00
2023-04-25T00:28:03.998Z,100.00
2023-04-25T00:28:44.145Z,100.00
2023-04-25T00:29:23.975Z,100.00
2023-04-25T00:30:04.117Z,100.00
2023-04-25T00:30:44.041Z,100.00
2023-04-25T00:31:24.173Z,100.00
2023-04-25T00:32:05.066Z,100.00
2023-04-25T00:32:45.291Z,100.00
2023-04-25T00:33:25.047Z,100.00
2023-04-25T00:34:05.086Z,100.00
2023-04-25T00:34:44.974Z,100.00
2023-04-25T00:35:25.099Z,100.00
2023-04-25T00:36:05.994Z,100.00
2023-04-25T00:36:46.119Z,100.00
2023-04-25T00:37:26.979Z,100.00
2023-04-25T00:38:07.170Z,100.00
2023-04-25T00:38:47.048Z,100.00
2023-04-25T00:39:27.168Z,100.00
2023-04-25T00:40:07.982Z,100.00
2023-04-25T00:40:48.102Z,100.00
2023-04-25T00:41:29.062Z,100.00
2023-04-25T00:42:09.098Z,100.00
2023-04-25T00:42:49.932Z,100.00
2023-04-25T00:43:30.095Z,100.00
2023-04-25T00:44:11.968Z,100.00
2023-04-25T00:44:53.074Z,100.00
2023-04-25T00:45:37.154Z,100.00
2023-04-25T00:46:17.200Z,100.00
2023-04-25T00:47:19.047Z,100.00
2023-04-25T00:48:12.934Z,100.00
2023-04-25T00:49:06.970Z,100.00
2023-04-25T00:50:00.979Z,100.00
2023-04-25T00:50:54.996Z,100.00
2023-04-25T00:51:48.933Z,100.00
2023-04-25T00:52:36.028Z,100.00
2023-04-25T00:53:10.990Z,100.00
2023-04-25T00:53:57.967Z,100.00
2023-04-25T00:54:32.033Z,100.00
2023-04-25T00:55:20.066Z,100.00
2023-04-25T00:55:54.182Z,100.00
2023-04-25T00:56:40.939Z,100.00
2023-04-25T00:57:15.198Z,100.00
2023-04-25T00:57:55.996Z,100.00
2023-04-25T00:58:36.023Z,100.00
2023-04-25T00:59:17.937Z,100.00
2023-04-25T00:59:59.363Z,100.00
2023-04-25T01:00:40.155Z,100.00
2023-04-25T01:01:20.585Z,100.00
2023-04-25T01:02:02.100Z,100.00
2023-04-25T01:02:43.161Z,100.00
2023-04-25T01:03:25.291Z,100.00
2023-04-25T01:04:07.420Z,100.00
2023-04-25T01:04:48.161Z,100.00
2023-04-25T01:05:28.047Z,100.00
2023-04-25T01:06:09.991Z,100.00
2023-04-25T01:06:50.036Z,100.00
2023-04-25T01:07:29.945Z,100.00
2023-04-25T01:08:10.089Z,100.00
2023-04-25T01:08:50.947Z,100.00
2023-04-25T01:09:31.063Z,100.00
2023-04-25T01:10:14.129Z,100.00
2023-04-25T01:10:54.057Z,100.00
2023-04-25T01:11:33.959Z,100.00
2023-04-25T01:12:14.050Z,100.00
2023-04-25T01:12:54.914Z,100.00
2023-04-25T01:13:35.110Z,100.00
2023-04-25T01:14:15.139Z,100.00
2023-04-25T01:14:55.053Z,100.00
2023-04-25T01:15:35.968Z,100.00
2023-04-25T01:16:16.148Z,100.00
2023-04-25T01:16:56.963Z,100.00
2023-04-25T01:17:37.388Z,100.00
2023-04-25T01:18:17.958Z,100.00
2023-04-25T01:18:58.028Z,100.00
2023-04-25T01:19:38.947Z,100.00
2023-04-25T01:20:20.032Z,100.00
2023-04-25T01:21:01.935Z,100.00
2023-04-25T01:21:42.146Z,100.00
2023-04-25T01:22:22.935Z,100.00
2023-04-25T01:23:04.003Z,100.00
2023-04-25T01:23:48.164Z,100.00
2023-04-25T01:24:29.097Z,100.00
2023-04-25T01:25:10.048Z,100.00
2023-04-25T01:25:49.989Z,100.00
2023-04-25T01:26:30.923Z,100.00
2023-04-25T01:27:11.485Z,100.00
2023-04-25T01:27:52.925Z,100.00
2023-04-25T01:28:33.921Z,100.00
2023-04-25T01:29:15.923Z,100.00
2023-04-25T01:29:57.090Z,100.00
2023-04-25T01:30:38.010Z,100.00
2023-04-25T01:31:20.195Z,100.00
2023-04-25T01:32:01.044Z,100.00
2023-04-25T01:32:42.020Z,100.00
2023-04-25T01:33:23.929Z,100.00
2023-04-25T01:34:05.209Z,100.00
2023-04-25T01:34:44.957Z,100.00
2023-04-25T01:35:25.052Z,100.00
2023-04-25T01:36:04.942Z,100.00
2023-04-25T01:36:45.089Z,100.00
2023-04-25T01:37:25.967Z,100.00
2023-04-25T01:38:07.085Z,100.00
2023-04-25T01:38:47.967Z,100.00
2023-04-25T01:39:27.982Z,100.00
2023-04-25T01:40:08.972Z,100.00
2023-04-25T01:40:48.992Z,100.00
2023-04-25T01:41:30.973Z,100.00
2023-04-25T01:42:10.970Z,100.00
2023-04-25T01:42:51.972Z,100.00
2023-04-25T01:43:31.986Z,100.00
2023-04-25T01:44:11.932Z,100.00
2023-04-25T01:44:52.027Z,100.00
2023-04-25T01:45:32.934Z,100.00
2023-04-25T01:46:13.012Z,100.00
2023-04-25T01:46:52.957Z,100.00
2023-04-25T01:47:33.234Z,100.00
2023-04-25T01:48:13.971Z,100.00
2023-04-25T01:48:54.030Z,100.00
2023-04-25T01:49:34.913Z,100.00
2023-04-25T01:50:16.187Z,100.00
2023-04-25T01:50:55.921Z,100.00
2023-04-25T01:51:35.998Z,100.00
2023-04-25T01:52:15.918Z,100.00
2023-04-25T01:52:56.047Z,100.00
2023-04-25T01:53:36.932Z,100.00
2023-04-25T01:54:17.974Z,100.00
2023-04-25T01:54:58.929Z,100.00
2023-04-25T01:55:39.000Z,100.00
2023-04-25T01:56:18.970Z,100.00
2023-04-25T01:56:59.076Z,100.00
2023-04-25T01:57:39.928Z,100.00
2023-04-25T01:58:20.090Z,100.00
2023-04-25T01:59:00.972Z,100.00
2023-04-25T01:59:41.020Z,100.00
2023-04-25T02:00:21.929Z,100.00
2023-04-25T02:01:02.093Z,100.00
2023-04-25T02:01:43.012Z,100.00
2023-04-25T02:03:02.035Z,100.00
2023-04-25T02:03:56.159Z,100.00
2023-04-25T02:04:51.140Z,100.00
2023-04-25T02:05:52.994Z,99.91
2023-04-25T02:06:46.914Z,100.00
2023-04-25T02:07:41.914Z,99.81
2023-04-25T02:08:23.929Z,100.00
2023-04-25T02:09:03.992Z,99.78
2023-04-25T02:09:44.940Z,99.83
2023-04-25T02:10:24.981Z,99.95
2023-04-25T02:11:05.884Z,100.00
2023-04-25T02:11:46.030Z,100.00
2023-04-25T02:12:26.925Z,100.00
2023-04-25T02:13:07.130Z,100.00
2023-04-25T02:13:48.070Z,100.00
2023-04-25T02:14:27.977Z,100.00
2023-04-25T02:15:07.885Z,100.00
2023-04-25T02:15:48.050Z,100.00
2023-04-25T02:16:28.992Z,100.00
2023-04-25T02:17:09.358Z,100.00
2023-04-25T02:17:52.973Z,100.00
2023-04-25T02:18:33.215Z,100.00
2023-04-25T02:19:13.876Z,100.00
2023-04-25T02:19:54.027Z,100.00
2023-04-25T02:20:35.892Z,100.00
2023-04-25T02:21:16.281Z,100.00
2023-04-25T02:21:56.935Z,100.00
2023-04-25T02:22:37.742Z,100.00
2023-04-25T02:23:18.870Z,100.00
2023-04-25T02:23:58.977Z,100.00
2023-04-25T02:24:40.899Z,100.00
2023-04-25T02:25:21.087Z,100.00
2023-04-25T02:26:02.886Z,100.00
2023-04-25T02:26:42.937Z,100.00
2023-04-25T02:27:22.876Z,100.00
2023-04-25T02:28:02.995Z,100.00
2023-04-25T02:28:42.910Z,100.00
2023-04-25T02:29:24.088Z,100.00
2023-04-25T02:30:04.997Z,100.00
2023-04-25T02:30:46.031Z,100.00
2023-04-25T02:31:26.901Z,100.00
2023-04-25T02:32:08.012Z,100.00
2023-04-25T02:32:48.884Z,100.00
2023-04-25T02:33:29.035Z,100.00
2023-04-25T02:34:09.873Z,100.00
2023-04-25T02:34:50.055Z,100.00
2023-04-25T02:35:29.902Z,100.00
2023-04-25T02:36:10.042Z,100.00
2023-04-25T02:36:49.918Z,100.00
2023-04-25T02:37:29.989Z,100.00
2023-04-25T02:38:10.872Z,100.00
2023-04-25T02:38:51.246Z,100.00
2023-04-25T02:39:32.882Z,100.00
2023-04-25T02:40:14.991Z,100.00
2023-04-25T02:40:54.883Z,100.00
2023-04-25T02:41:35.067Z,100.00
2023-04-25T02:42:15.867Z,100.00
2023-04-25T02:42:56.006Z,100.00
2023-04-25T02:43:35.870Z,100.00
2023-04-25T02:44:16.048Z,100.00
2023-04-25T02:44:55.877Z,100.00
2023-04-25T02:45:36.296Z,100.00
2023-04-25T02:46:22.839Z,100.00
2023-04-25T02:47:08.969Z,100.00
2023-04-25T02:47:48.969Z,100.00
2023-04-25T02:48:30.310Z,100.00
2023-04-25T02:49:09.875Z,100.00
2023-04-25T02:49:50.010Z,100.00
2023-04-25T02:50:30.871Z,100.00
2023-04-25T02:51:10.973Z,100.00
2023-04-25T02:51:50.862Z,100.00
2023-04-25T02:52:31.256Z,100.00
2023-04-25T02:53:10.835Z,100.00
2023-04-25T02:53:52.200Z,100.00
2023-04-25T02:54:32.855Z,100.00
2023-04-25T02:55:14.023Z,100.00
2023-04-25T02:55:53.879Z,100.00
2023-04-25T02:56:33.979Z,100.00
2023-04-25T02:57:14.972Z,100.00
2023-04-25T02:57:56.333Z,100.00
2023-04-25T02:58:36.837Z,100.00
2023-04-25T02:59:16.940Z,100.00
2023-04-25T02:59:56.836Z,100.00
2023-04-25T03:00:36.953Z,100.00
2023-04-25T03:01:16.925Z,100.00
2023-04-25T03:01:57.038Z,100.00
2023-04-25T03:02:37.977Z,100.00
2023-04-25T03:03:19.266Z,100.00
2023-04-25T03:03:58.862Z,100.00
2023-04-25T03:04:39.073Z,100.00
2023-04-25T03:05:19.823Z,100.00
2023-04-25T03:05:59.927Z,100.00
2023-04-25T03:06:40.851Z,100.00
2023-04-25T03:07:21.424Z,100.00
2023-04-25T03:08:01.862Z,100.00
2023-04-25T03:08:42.058Z,100.00
2023-04-25T03:09:22.828Z,100.00
2023-04-25T03:10:03.385Z,100.00
2023-04-25T03:10:44.839Z,100.00
2023-04-25T03:11:24.998Z,100.00
2023-04-25T03:12:04.835Z,100.00
2023-04-25T03:12:44.934Z,100.00
2023-04-25T03:13:24.898Z,100.00
2023-04-25T03:14:04.945Z,100.00
2023-04-25T03:14:45.840Z,100.00
2023-04-25T03:15:25.951Z,100.00
2023-04-25T03:16:05.907Z,100.00
2023-04-25T03:16:46.157Z,100.00
2023-04-25T03:17:25.901Z,100.00
2023-04-25T03:18:05.947Z,100.00
2023-04-25T03:18:46.850Z,100.00
2023-04-25T03:19:26.959Z,100.00
2023-04-25T03:20:06.832Z,100.00
2023-04-25T03:20:47.947Z,100.00
2023-04-25T03:21:27.875Z,100.00
2023-04-25T03:22:07.927Z,100.00
2023-04-25T03:22:48.843Z,100.00
2023-04-25T03:23:29.023Z,100.00
2023-04-25T03:24:10.828Z,100.00
2023-04-25T03:24:50.975Z,100.00
2023-04-25T03:25:30.853Z,100.00
2023-04-25T03:26:11.094Z,100.00
2023-04-25T03:26:51.878Z,100.00
2023-04-25T03:27:31.933Z,100.00
2023-04-25T03:28:11.837Z,100.00
2023-04-25T03:28:51.996Z,100.00
2023-04-25T03:29:33.835Z,100.00
2023-04-25T03:30:14.950Z,100.00
2023-04-25T03:30:55.866Z,100.00
2023-04-25T03:31:35.954Z,100.00
2023-04-25T03:32:16.000Z,100.00
2023-04-25T03:32:56.426Z,100.00
2023-04-25T03:33:36.809Z,100.00
2023-04-25T03:34:16.983Z,100.00
2023-04-25T03:34:57.927Z,100.00
2023-04-25T03:35:37.915Z,100.00
2023-04-25T03:36:17.807Z,100.00
2023-04-25T03:36:57.920Z,100.00
2023-04-25T03:37:38.807Z,100.00
2023-04-25T03:38:18.931Z,100.00
2023-04-25T03:38:59.814Z,100.00
2023-04-25T03:39:40.021Z,100.00
2023-04-25T03:40:20.892Z,100.00
2023-04-25T03:41:01.947Z,100.00
2023-04-25T03:41:42.851Z,100.00
2023-04-25T03:42:23.974Z,100.00
2023-04-25T03:43:04.812Z,100.00
2023-04-25T03:43:44.931Z,100.00
2023-04-25T03:44:24.841Z,100.00
2023-04-25T03:45:04.890Z,100.00
2023-04-25T03:45:44.845Z,100.00
2023-04-25T03:46:25.082Z,100.00
2023-04-25T03:47:05.816Z,100.00
2023-04-25T03:47:45.987Z,100.00
2023-04-25T03:48:28.876Z,100.00
2023-04-25T03:49:09.208Z,100.00
2023-04-25T03:49:49.867Z,100.00
2023-04-25T03:50:29.966Z,100.00
2023-04-25T03:51:10.883Z,100.00
2023-04-25T03:51:50.911Z,100.00
2023-04-25T03:52:30.773Z,100.00
2023-04-25T03:53:10.975Z,100.00
2023-04-25T03:53:51.057Z,100.00
2023-04-25T03:54:31.951Z,100.00
2023-04-25T03:55:12.874Z,100.00
2023-04-25T03:55:52.881Z,100.00
2023-04-25T03:56:32.832Z,100.00
2023-04-25T03:57:12.899Z,100.00
2023-04-25T03:57:52.805Z,100.00
2023-04-25T03:58:32.995Z,100.00
2023-04-25T03:59:13.784Z,100.00
2023-04-25T03:59:53.970Z,100.00
2023-04-25T04:00:33.780Z,100.00
2023-04-25T04:01:13.890Z,100.00
2023-04-25T04:01:53.828Z,100.00
2023-04-25T04:02:35.985Z,100.00
2023-04-25T04:03:17.041Z,100.00
2023-04-25T04:03:58.406Z,100.00
2023-04-25T04:04:38.968Z,100.00
2023-04-25T04:05:20.154Z,100.00
2023-04-25T04:06:00.827Z,100.00
2023-04-25T04:06:40.998Z,100.00
2023-04-25T04:07:21.816Z,100.00
2023-04-25T04:08:02.936Z,100.00
2023-04-25T04:08:42.854Z,100.00
2023-04-25T04:09:22.913Z,100.00
2023-04-25T04:10:02.760Z,100.00
2023-04-25T04:10:42.974Z,100.00
2023-04-25T04:11:23.856Z,100.00
2023-04-25T04:12:03.867Z,100.00
2023-04-25T04:12:44.864Z,100.00
2023-04-25T04:13:24.894Z,100.00
2023-04-25T04:14:04.797Z,100.00
2023-04-25T04:14:45.158Z,100.00
2023-04-25T04:15:25.786Z,100.00
2023-04-25T04:16:06.201Z,100.00
2023-04-25T04:16:45.808Z,100.00
2023-04-25T04:17:26.233Z,100.00
2023-04-25T04:18:09.893Z,100.00
2023-04-25T04:18:49.934Z,100.00
2023-04-25T04:19:30.844Z,100.00
2023-04-25T04:20:12.099Z,100.00
2023-04-25T04:20:51.788Z,100.00
2023-04-25T04:21:32.905Z,100.00
2023-04-25T04:22:12.761Z,100.00
2023-04-25T04:22:52.875Z,100.00
2023-04-25T04:23:34.844Z,100.00
2023-04-25T04:24:15.974Z,100.00
2023-04-25T04:24:57.751Z,100.00
2023-04-25T04:25:37.882Z,100.00
2023-04-25T04:26:18.758Z,100.00
2023-04-25T04:26:59.856Z,100.00
2023-04-25T04:27:40.764Z,100.00
2023-04-25T04:28:21.590Z,100.00
2023-04-25T04:29:02.832Z,100.00
2023-04-25T04:29:42.954Z,100.00
2023-04-25T04:30:23.776Z,100.00
2023-04-25T04:31:04.814Z,100.00
2023-04-25T04:31:45.741Z,100.00
2023-04-25T04:32:26.520Z,100.00
2023-04-25T04:33:08.792Z,100.00
2023-04-25T04:33:49.028Z,100.00
2023-04-25T04:34:28.816Z,100.00
2023-04-25T04:35:10.013Z,100.00
2023-04-25T04:35:50.722Z,100.00
2023-04-25T04:36:30.886Z,100.00
2023-04-25T04:37:10.798Z,100.00
2023-04-25T04:38:04.736Z,100.00
2023-04-25T04:38:58.772Z,100.00
2023-04-25T04:39:45.830Z,100.00
2023-04-25T04:40:19.934Z,100.00
2023-04-25T04:41:06.729Z,100.00
2023-04-25T04:41:40.934Z,100.00
2023-04-25T04:42:28.919Z,100.00
2023-04-25T04:43:03.113Z,100.00
2023-04-25T04:43:51.217Z,100.00
2023-04-25T04:44:26.254Z,100.00
2023-04-25T04:45:05.796Z,100.00
2023-04-25T04:45:45.834Z,100.00
2023-04-25T04:46:25.813Z,100.00
2023-04-25T04:47:07.840Z,100.00
2023-04-25T04:47:48.798Z,100.00
2023-04-25T04:48:29.198Z,100.00
2023-04-25T04:49:08.724Z,100.00
2023-04-25T04:49:48.818Z,100.00
2023-04-25T04:50:28.785Z,100.00
2023-04-25T04:51:08.804Z,100.00
2023-04-25T04:51:51.915Z,100.00
2023-04-25T04:52:32.354Z,100.00
2023-04-25T04:53:13.728Z,100.00
2023-04-25T04:53:54.235Z,100.00
2023-04-25T04:54:34.716Z,100.00
2023-04-25T04:55:15.825Z,100.00
2023-04-25T04:55:55.725Z,100.00
2023-04-25T04:56:38.851Z,100.00
2023-04-25T04:57:18.728Z,100.00
2023-04-25T04:57:58.840Z,100.00
2023-04-25T04:58:38.750Z,100.00
2023-04-25T04:59:18.914Z,100.00
2023-04-25T04:59:59.743Z,100.00
2023-04-25T05:00:39.883Z,100.00
2023-04-25T05:01:19.882Z,100.00
2023-04-25T05:02:01.077Z,100.00
2023-04-25T05:02:40.925Z,100.00
2023-04-25T05:03:22.024Z,100.00
2023-04-25T05:04:07.971Z,100.00
2023-04-25T05:04:48.872Z,100.00
2023-04-25T05:05:29.739Z,100.00
2023-04-25T05:06:09.834Z,100.00
2023-04-25T05:06:49.758Z,100.00
2023-04-25T05:07:29.802Z,100.00
2023-04-25T05:08:09.726Z,100.00
2023-04-25T05:08:50.124Z,100.00
2023-04-25T05:09:32.695Z,100.00
2023-04-25T05:10:13.967Z,100.00
2023-04-25T05:10:53.698Z,100.00
2023-04-25T05:11:33.840Z,100.00
2023-04-25T05:12:14.743Z,100.00
2023-04-25T05:12:54.801Z,100.00
2023-04-25T05:13:34.763Z,100.00
2023-04-25T05:14:14.822Z,100.00
2023-04-25T05:14:54.726Z,100.00
2023-04-25T05:15:48.716Z,100.00
2023-04-25T05:16:42.757Z,100.00
2023-04-25T05:17:29.809Z,100.00
2023-04-25T05:18:03.841Z,100.00
2023-04-25T05:18:50.751Z,100.00
2023-04-25T05:19:24.818Z,100.00
2023-04-25T05:20:14.735Z,100.00
2023-04-25T05:20:48.928Z,100.00
2023-04-25T05:21:35.704Z,100.00
2023-04-25T05:22:09.770Z,100.00
2023-04-25T05:22:49.746Z,100.00
2023-04-25T05:23:32.582Z,100.00
2023-04-25T05:24:13.704Z,100.00
2023-04-25T05:24:55.874Z,100.00
2023-04-25T05:25:35.683Z,100.00
2023-04-25T05:26:15.806Z,100.00
2023-04-25T05:26:55.716Z,100.00
2023-04-25T05:27:35.919Z,100.00
2023-04-25T05:28:15.690Z,100.00
2023-04-25T05:28:55.987Z,100.00
2023-04-25T05:29:35.717Z,100.00
2023-04-25T05:30:16.844Z,100.00
2023-04-25T05:30:57.729Z,100.00
2023-04-25T05:31:37.906Z,100.00
2023-04-25T05:32:18.899Z,100.00
2023-04-25T05:32:58.855Z,100.00
2023-04-25T05:33:38.711Z,100.00
2023-04-25T05:34:18.860Z,100.00
2023-04-25T05:34:59.759Z,100.00
2023-04-25T05:35:39.775Z,100.00
2023-04-25T05:36:19.692Z,100.00
2023-04-25T05:36:59.833Z,100.00
2023-04-25T05:37:40.696Z,100.00
2023-04-25T05:38:20.823Z,100.00
2023-04-25T05:39:00.812Z,100.00
2023-04-25T05:39:41.774Z,100.00
2023-04-25T05:40:28.728Z,100.00
2023-04-25T05:41:02.857Z,100.00
2023-04-25T05:41:49.683Z,100.00
2023-04-25T05:42:23.764Z,100.00
2023-04-25T05:43:11.166Z,100.00
2023-04-25T05:43:48.357Z,100.00
2023-04-25T05:44:29.834Z,100.00
2023-04-25T05:45:09.850Z,100.00
2023-04-25T05:45:49.767Z,100.00
2023-04-25T05:46:29.891Z,100.00
2023-04-25T05:47:11.670Z,100.00
2023-04-25T05:47:51.826Z,100.00
2023-04-25T05:48:38.682Z,100.00
2023-04-25T05:49:12.412Z,100.00
2023-04-25T05:49:52.683Z,100.00
2023-04-25T05:50:26.844Z,100.00
2023-04-25T05:51:00.629Z,100.00
2023-04-25T05:51:41.692Z,100.00
2023-04-25T05:52:16.426Z,100.00
2023-04-25T05:52:51.811Z,100.00
2023-04-25T05:53:31.691Z,100.00
2023-04-25T05:54:05.827Z,100.00
2023-04-25T05:54:39.428Z,100.00
2023-04-25T05:55:20.676Z,100.00
2023-04-25T05:55:54.794Z,100.00
2023-04-25T05:56:28.442Z,100.00
2023-04-25T05:57:09.680Z,100.00
2023-04-25T05:57:46.172Z,100.00
2023-04-25T05:58:20.485Z,100.00
2023-04-25T05:59:01.721Z,100.00
2023-04-25T05:59:35.999Z,100.00
2023-04-25T06:00:15.996Z,100.00
2023-04-25T06:00:56.692Z,100.00
2023-04-25T06:01:31.032Z,100.00
2023-04-25T06:02:04.474Z,100.00
2023-04-25T06:03:06.896Z,100.00
2023-04-25T06:03:44.095Z,100.00
2023-04-25T06:04:18.866Z,100.00
2023-04-25T06:04:58.812Z,100.00
2023-04-25T06:05:32.801Z,100.00
2023-04-25T06:06:12.679Z,100.00
2023-04-25T06:06:52.728Z,100.00
2023-04-25T06:07:33.665Z,100.00
2023-04-25T06:08:13.773Z,100.00
2023-04-25T06:08:53.668Z,100.00
2023-04-25T06:09:33.771Z,100.00
2023-04-25T06:10:14.655Z,100.00
2023-04-25T06:10:55.736Z,100.00
2023-04-25T06:11:35.657Z,100.00
2023-04-25T06:12:15.858Z,100.00
2023-04-25T06:12:56.633Z,100.00
2023-04-25T06:13:36.704Z,100.00
2023-04-25T06:14:17.620Z,100.00
2023-04-25T06:14:59.088Z,100.00
2023-04-25T06:15:39.651Z,100.00
2023-04-25T06:16:19.849Z,100.00
2023-04-25T06:16:59.666Z,100.00
2023-04-25T06:17:40.894Z,100.00
2023-04-25T06:18:20.698Z,100.00
2023-04-25T06:19:01.743Z,100.00
2023-04-25T06:19:43.661Z,100.00
2023-04-25T06:20:25.372Z,100.00
2023-04-25T06:21:05.649Z,100.00
2023-04-25T06:21:45.791Z,100.00
2023-04-25T06:22:26.678Z,100.00
2023-04-25T06:23:07.797Z,100.00
2023-04-25T06:23:47.659Z,100.00
2023-04-25T06:24:27.775Z,100.00
2023-04-25T06:25:08.648Z,100.00
2023-04-25T06:25:48.731Z,100.00
2023-04-25T06:26:29.648Z,100.00
2023-04-25T06:27:10.691Z,100.00
2023-04-25T06:27:50.664Z,100.00
2023-04-25T06:28:30.878Z,100.00
2023-04-25T06:29:10.674Z,100.00
2023-04-25T06:29:50.760Z,100.00
2023-04-25T06:30:32.659Z,100.00
2023-04-25T06:31:13.769Z,100.00
2023-04-25T06:31:53.680Z,100.00
2023-04-25T06:32:35.340Z,100.00
2023-04-25T06:33:16.685Z,100.00
2023-04-25T06:33:57.854Z,100.00
2023-04-25T06:34:37.637Z,100.00
2023-04-25T06:35:20.830Z,100.00
2023-04-25T06:36:00.655Z,100.00
2023-04-25T06:36:42.433Z,100.00
2023-04-25T06:37:23.637Z,100.00
2023-04-25T06:38:03.731Z,100.00
2023-04-25T06:38:43.708Z,100.00
2023-04-25T06:39:26.304Z,100.00
2023-04-25T06:40:06.643Z,100.00
2023-04-25T06:40:46.755Z,100.00
2023-04-25T06:41:29.861Z,100.00
2023-04-25T06:42:10.990Z,100.00
2023-04-25T06:42:51.846Z,100.00
2023-04-25T06:43:34.366Z,100.00
2023-04-25T06:44:14.679Z,100.00
2023-04-25T06:44:54.816Z,100.00
2023-04-25T06:45:34.620Z,100.00
2023-04-25T06:46:14.710Z,98.60
2023-04-25T06:46:54.633Z,98.58
2023-04-25T06:47:35.777Z,98.80
2023-04-25T06:48:15.600Z,98.50
2023-04-25T06:48:56.019Z,98.18
2023-04-25T06:49:35.706Z,97.20
2023-04-25T06:50:16.734Z,96.51
2023-04-25T06:50:56.683Z,97.58
2023-04-25T06:51:37.752Z,97.96
2023-04-25T06:52:18.610Z,98.44
2023-04-25T06:52:58.708Z,97.96
2023-04-25T06:53:38.606Z,97.60
2023-04-25T06:54:18.784Z,98.39
2023-04-25T06:54:58.634Z,98.50
2023-04-25T06:55:39.744Z,97.56
2023-04-25T06:56:26.638Z,96.99
2023-04-25T06:57:01.955Z,97.37
2023-04-25T06:57:48.628Z,99.27
2023-04-25T06:58:23.222Z,96.67
2023-04-25T06:59:10.619Z,97.09
2023-04-25T06:59:44.702Z,96.65
2023-04-25T07:00:25.604Z,95.05
2023-04-25T07:01:05.952Z,95.35
2023-04-25T07:01:45.695Z,96.33
2023-04-25T07:02:25.980Z,97.61
2023-04-25T07:03:05.763Z,97.08
2023-04-25T07:03:46.877Z,97.23
2023-04-25T07:04:26.852Z,97.43
2023-04-25T07:05:07.727Z,96.29
2023-04-25T07:05:48.617Z,97.00
2023-04-25T07:06:28.948Z,97.16
2023-04-25T07:07:10.639Z,97.36
2023-04-25T07:07:50.795Z,97.04
2023-04-25T07:08:30.618Z,97.11
2023-04-25T07:09:13.797Z,96.63
2023-04-25T07:09:53.606Z,93.04
2023-04-25T07:10:33.714Z,93.73
2023-04-25T07:11:14.635Z,92.92
2023-04-25T07:11:54.663Z,93.09
2023-04-25T07:12:34.595Z,93.34
2023-04-25T07:13:14.758Z,92.14
2023-04-25T07:13:54.594Z,90.81
2023-04-25T07:14:35.705Z,91.63
2023-04-25T07:15:17.624Z,91.16
2023-04-25T07:15:58.051Z,91.72
2023-04-25T07:16:37.713Z,91.43
2023-04-25T07:17:17.717Z,90.84
2023-04-25T07:17:57.661Z,91.33
2023-04-25T07:18:37.956Z,90.83
2023-04-25T07:19:18.601Z,90.69
2023-04-25T07:19:58.673Z,90.20
2023-04-25T07:20:40.580Z,89.77
2023-04-25T07:21:20.760Z,90.40
2023-04-25T07:22:01.638Z,91.24
2023-04-25T07:22:41.763Z,91.17
2023-04-25T07:23:22.616Z,90.48
2023-04-25T07:24:02.955Z,89.66
2023-04-25T07:24:42.609Z,89.80
2023-04-25T07:25:22.709Z,90.02
2023-04-25T07:26:03.602Z,90.14
2023-04-25T07:26:43.742Z,90.47
2023-04-25T07:27:24.604Z,91.26
2023-04-25T07:28:05.358Z,91.50
2023-04-25T07:28:46.645Z,90.96
2023-04-25T07:29:26.861Z,90.92
2023-04-25T07:30:06.591Z,91.10
2023-04-25T07:30:46.710Z,90.65
2023-04-25T07:31:27.618Z,90.69
2023-04-25T07:32:08.712Z,90.91
2023-04-25T07:32:48.782Z,90.72
2023-04-25T07:33:28.679Z,91.47
2023-04-25T07:34:08.577Z,89.02
2023-04-25T07:34:49.699Z,89.44
2023-04-25T07:35:30.590Z,88.83
2023-04-25T07:36:10.687Z,88.81
2023-04-25T07:36:51.656Z,90.48
2023-04-25T07:37:31.712Z,90.97
2023-04-25T07:38:14.680Z,89.88
2023-04-25T07:38:54.842Z,88.04
2023-04-25T07:39:35.582Z,88.52
2023-04-25T07:40:17.592Z,89.10
2023-04-25T07:40:57.611Z,89.59
2023-04-25T07:41:37.704Z,90.48
2023-04-25T07:42:17.575Z,90.79
2023-04-25T07:42:57.734Z,91.22
2023-04-25T07:43:38.618Z,91.07
2023-04-25T07:44:18.714Z,90.39
2023-04-25T07:44:59.579Z,90.93
2023-04-25T07:45:39.710Z,89.95
2023-04-25T07:46:20.691Z,90.34
2023-04-25T07:47:02.472Z,90.42
2023-04-25T07:47:44.634Z,90.41
2023-04-25T07:48:25.710Z,90.14
2023-04-25T07:49:05.619Z,90.67
2023-04-25T07:49:46.380Z,91.40
2023-04-25T07:50:27.587Z,90.74
2023-04-25T07:51:08.405Z,91.68
2023-04-25T07:51:50.567Z,91.52
2023-04-25T07:52:30.680Z,91.13
2023-04-25T07:53:11.601Z,91.83
2023-04-25T07:53:51.741Z,92.78
2023-04-25T07:54:32.730Z,93.18
2023-04-25T07:55:12.935Z,91.18
2023-04-25T07:55:53.641Z,91.43
2023-04-25T07:56:45.243Z,92.85
2023-04-25T07:57:32.615Z,93.38
2023-04-25T07:58:16.360Z,91.92
2023-04-25T07:58:57.520Z,93.13
2023-04-25T07:59:44.598Z,91.61
2023-04-25T08:00:38.574Z,93.40
2023-04-25T08:01:41.447Z,91.57
2023-04-25T08:02:53.631Z,92.02
2023-04-25T08:03:27.874Z,92.69
2023-04-25T08:04:02.451Z,92.63
2023-04-25T08:04:42.817Z,91.70
2023-04-25T08:05:23.680Z,92.26
2023-04-25T08:05:57.384Z,92.57
2023-04-25T08:06:44.585Z,92.11
2023-04-25T08:07:18.306Z,93.14
2023-04-25T08:08:05.543Z,92.05
2023-04-25T08:08:39.491Z,92.75
2023-04-25T08:09:26.569Z,92.14
2023-04-25T08:10:06.777Z,92.45
2023-04-25T08:10:46.678Z,92.67
2023-04-25T08:11:27.558Z,92.96
2023-04-25T08:12:07.616Z,93.38
2023-04-25T08:12:47.529Z,93.05
2023-04-25T08:13:27.668Z,93.86
2023-04-25T08:14:07.563Z,92.33
2023-04-25T08:14:48.641Z,92.17
2023-04-25T08:15:28.580Z,90.57
2023-04-25T08:16:08.656Z,90.12
2023-04-25T08:16:49.539Z,89.80
2023-04-25T08:17:29.606Z,90.64
2023-04-25T08:18:10.557Z,89.72
2023-04-25T08:18:51.887Z,89.39
2023-04-25T08:19:33.547Z,88.53
2023-04-25T08:20:14.715Z,89.06
2023-04-25T08:20:54.552Z,88.45
2023-04-25T08:21:34.816Z,87.99
2023-04-25T08:22:15.582Z,87.67
2023-04-25T08:22:56.621Z,87.66
2023-04-25T08:23:36.719Z,87.86
2023-04-25T08:24:16.634Z,88.08
2023-04-25T08:24:56.551Z,88.28
2023-04-25T08:25:36.668Z,89.49
2023-04-25T08:26:16.549Z,88.56
2023-04-25T08:26:58.011Z,87.64
2023-04-25T08:27:38.552Z,85.20
2023-04-25T08:28:18.620Z,85.85
2023-04-25T08:28:58.546Z,87.03
2023-04-25T08:29:38.672Z,87.56
2023-04-25T08:30:19.534Z,85.88
2023-04-25T08:31:01.309Z,86.21
2023-04-25T08:31:41.632Z,85.38
2023-04-25T08:32:22.356Z,85.72
2023-04-25T08:33:10.563Z,85.18
2023-04-25T08:33:45.688Z,86.21
2023-04-25T08:34:33.508Z,85.57
2023-04-25T08:35:07.854Z,85.44
2023-04-25T08:35:55.526Z,86.30